sensor_id;sensor_type;location;lat;lon;timestamp;temperature;humidity
79760;DHT22;70512;42.122;24.732;2023-12-28T00:01:23;8.30;68.00
79760;DHT22;70512;42.122;24.732;2023-12-28T00:03:50;8.20;67.90
79760;DHT22;70512;42.122;24.732;2023-12-28T00:06:17;8.20;68.20
79760;DHT22;70512;42.122;24.732;2023-12-28T00:08:44;8.10;68.40
79760;DHT22;70512;42.122;24.732;2023-12-28T00:11:11;8.00;68.90
79760;DHT22;70512;42.122;24.732;2023-12-28T00:13:38;8.00;69.10
79760;DHT22;70512;42.122;24.732;2023-12-28T00:16:05;7.90;69.40
79760;DHT22;70512;42.122;24.732;2023-12-28T00:18:35;7.90;69.80
79760;DHT22;70512;42.122;24.732;2023-12-28T00:21:02;7.90;69.90
79760;DHT22;70512;42.122;24.732;2023-12-28T00:23:29;7.80;70.10
79760;DHT22;70512;42.122;24.732;2023-12-28T00:25:56;7.80;70.30
79760;DHT22;70512;42.122;24.732;2023-12-28T00:28:23;7.80;70.60
79760;DHT22;70512;42.122;24.732;2023-12-28T00:30:50;7.70;70.70
79760;DHT22;70512;42.122;24.732;2023-12-28T00:33:17;7.70;70.80
79760;DHT22;70512;42.122;24.732;2023-12-28T00:35:48;7.60;71.00
79760;DHT22;70512;42.122;24.732;2023-12-28T00:38:12;7.50;71.30
79760;DHT22;70512;42.122;24.732;2023-12-28T00:40:39;7.50;71.80
79760;DHT22;70512;42.122;24.732;2023-12-28T00:43:06;7.40;72.00
79760;DHT22;70512;42.122;24.732;2023-12-28T00:45:33;7.40;72.40
79760;DHT22;70512;42.122;24.732;2023-12-28T00:48:00;7.30;72.50
79760;DHT22;70512;42.122;24.732;2023-12-28T00:50:27;7.30;72.50
79760;DHT22;70512;42.122;24.732;2023-12-28T00:52:55;7.30;72.20
79760;DHT22;70512;42.122;24.732;2023-12-28T00:55:27;7.40;72.20
79760;DHT22;70512;42.122;24.732;2023-12-28T00:57:51;7.40;72.10
79760;DHT22;70512;42.122;24.732;2023-12-28T01:00:17;7.50;71.30
79760;DHT22;70512;42.122;24.732;2023-12-28T01:02:44;7.50;70.90
79760;DHT22;70512;42.122;24.732;2023-12-28T01:05:13;7.60;70.90
79760;DHT22;70512;42.122;24.732;2023-12-28T01:07:40;7.60;71.20
79760;DHT22;70512;42.122;24.732;2023-12-28T01:10:08;7.70;71.30
79760;DHT22;70512;42.122;24.732;2023-12-28T01:12:35;7.70;71.20
79760;DHT22;70512;42.122;24.732;2023-12-28T01:15:02;7.60;71.60
79760;DHT22;70512;42.122;24.732;2023-12-28T01:17:29;7.60;71.80
79760;DHT22;70512;42.122;24.732;2023-12-28T01:19:56;7.60;72.10
79760;DHT22;70512;42.122;24.732;2023-12-28T01:22:23;7.60;72.10
79760;DHT22;70512;42.122;24.732;2023-12-28T01:24:50;7.60;71.90
79760;DHT22;70512;42.122;24.732;2023-12-28T01:27:17;7.60;71.50
79760;DHT22;70512;42.122;24.732;2023-12-28T01:29:44;7.60;71.40
79760;DHT22;70512;42.122;24.732;2023-12-28T01:32:11;7.60;71.10
79760;DHT22;70512;42.122;24.732;2023-12-28T01:34:39;7.60;71.40
79760;DHT22;70512;42.122;24.732;2023-12-28T01:37:08;7.50;71.40
79760;DHT22;70512;42.122;24.732;2023-12-28T01:39:35;7.50;71.30
79760;DHT22;70512;42.122;24.732;2023-12-28T01:42:02;7.50;71.50
79760;DHT22;70512;42.122;24.732;2023-12-28T01:44:31;7.40;71.50
79760;DHT22;70512;42.122;24.732;2023-12-28T01:46:59;7.40;71.50
79760;DHT22;70512;42.122;24.732;2023-12-28T01:49:26;7.40;71.60
79760;DHT22;70512;42.122;24.732;2023-12-28T01:51:53;7.30;71.80
79760;DHT22;70512;42.122;24.732;2023-12-28T01:54:20;7.30;72.20
79760;DHT22;70512;42.122;24.732;2023-12-28T01:56:47;7.20;72.40
79760;DHT22;70512;42.122;24.732;2023-12-28T01:59:14;7.10;73.30
79760;DHT22;70512;42.122;24.732;2023-12-28T02:01:44;7.00;73.30
79760;DHT22;70512;42.122;24.732;2023-12-28T02:04:12;7.00;73.40
79760;DHT22;70512;42.122;24.732;2023-12-28T02:06:39;7.00;73.40
79760;DHT22;70512;42.122;24.732;2023-12-28T02:09:06;7.00;73.40
79760;DHT22;70512;42.122;24.732;2023-12-28T02:11:33;6.90;73.50
79760;DHT22;70512;42.122;24.732;2023-12-28T02:14:00;6.90;73.50
79760;DHT22;70512;42.122;24.732;2023-12-28T02:16:33;6.90;74.20
79760;DHT22;70512;42.122;24.732;2023-12-28T02:19:03;6.80;75.20
79760;DHT22;70512;42.122;24.732;2023-12-28T02:21:29;6.60;75.80
79760;DHT22;70512;42.122;24.732;2023-12-28T02:23:58;6.40;76.50
79760;DHT22;70512;42.122;24.732;2023-12-28T02:26:25;6.40;77.10
79760;DHT22;70512;42.122;24.732;2023-12-28T02:28:52;6.30;77.20
79760;DHT22;70512;42.122;24.732;2023-12-28T02:31:23;6.40;76.70
79760;DHT22;70512;42.122;24.732;2023-12-28T02:33:57;6.50;76.50
79760;DHT22;70512;42.122;24.732;2023-12-28T02:36:18;6.50;76.20
79760;DHT22;70512;42.122;24.732;2023-12-28T02:38:45;6.50;76.20
79760;DHT22;70512;42.122;24.732;2023-12-28T02:41:14;6.50;76.60
79760;DHT22;70512;42.122;24.732;2023-12-28T02:43:41;6.50;76.70
79760;DHT22;70512;42.122;24.732;2023-12-28T02:46:07;6.50;77.10
79760;DHT22;70512;42.122;24.732;2023-12-28T02:48:34;6.40;77.10
79760;DHT22;70512;42.122;24.732;2023-12-28T02:51:01;6.40;76.90
79760;DHT22;70512;42.122;24.732;2023-12-28T02:53:28;6.50;76.70
79760;DHT22;70512;42.122;24.732;2023-12-28T02:55:55;6.50;76.90
79760;DHT22;70512;42.122;24.732;2023-12-28T02:58:22;6.40;77.10
79760;DHT22;70512;42.122;24.732;2023-12-28T03:00:49;6.40;78.00
79760;DHT22;70512;42.122;24.732;2023-12-28T03:03:16;6.30;78.20
79760;DHT22;70512;42.122;24.732;2023-12-28T03:05:43;6.20;78.40
79760;DHT22;70512;42.122;24.732;2023-12-28T03:08:12;6.10;79.00
79760;DHT22;70512;42.122;24.732;2023-12-28T03:10:39;6.00;79.50
79760;DHT22;70512;42.122;24.732;2023-12-28T03:13:06;5.90;79.90
79760;DHT22;70512;42.122;24.732;2023-12-28T03:15:33;5.80;80.10
79760;DHT22;70512;42.122;24.732;2023-12-28T03:18:00;5.90;80.10
79760;DHT22;70512;42.122;24.732;2023-12-28T03:20:27;5.90;79.80
79760;DHT22;70512;42.122;24.732;2023-12-28T03:22:54;5.90;79.80
79760;DHT22;70512;42.122;24.732;2023-12-28T03:25:20;5.80;80.90
79760;DHT22;70512;42.122;24.732;2023-12-28T03:27:47;5.70;80.50
79760;DHT22;70512;42.122;24.732;2023-12-28T03:30:14;5.70;80.80
79760;DHT22;70512;42.122;24.732;2023-12-28T03:32:41;5.60;81.70
79760;DHT22;70512;42.122;24.732;2023-12-28T03:35:08;5.40;82.00
79760;DHT22;70512;42.122;24.732;2023-12-28T03:37:35;5.50;81.90
79760;DHT22;70512;42.122;24.732;2023-12-28T03:40:02;5.60;81.40
79760;DHT22;70512;42.122;24.732;2023-12-28T03:42:29;5.60;81.50
79760;DHT22;70512;42.122;24.732;2023-12-28T03:44:56;5.60;81.40
79760;DHT22;70512;42.122;24.732;2023-12-28T03:47:23;5.70;81.20
79760;DHT22;70512;42.122;24.732;2023-12-28T03:49:50;5.60;81.50
79760;DHT22;70512;42.122;24.732;2023-12-28T03:52:17;5.60;82.00
79760;DHT22;70512;42.122;24.732;2023-12-28T03:54:44;5.60;81.80
79760;DHT22;70512;42.122;24.732;2023-12-28T03:57:11;5.70;81.30
79760;DHT22;70512;42.122;24.732;2023-12-28T03:59:39;5.70;80.90
79760;DHT22;70512;42.122;24.732;2023-12-28T04:02:06;5.80;80.70
79760;DHT22;70512;42.122;24.732;2023-12-28T04:04:32;5.80;80.70
79760;DHT22;70512;42.122;24.732;2023-12-28T04:07:04;5.70;80.70
79760;DHT22;70512;42.122;24.732;2023-12-28T04:09:28;5.80;81.50
79760;DHT22;70512;42.122;24.732;2023-12-28T04:11:55;5.70;80.70
79760;DHT22;70512;42.122;24.732;2023-12-28T04:14:22;5.80;79.80
79760;DHT22;70512;42.122;24.732;2023-12-28T04:16:49;5.80;79.10
79760;DHT22;70512;42.122;24.732;2023-12-28T04:19:15;5.90;78.70
79760;DHT22;70512;42.122;24.732;2023-12-28T04:21:43;5.90;79.10
79760;DHT22;70512;42.122;24.732;2023-12-28T04:24:12;5.80;79.10
79760;DHT22;70512;42.122;24.732;2023-12-28T04:26:39;5.80;78.50
79760;DHT22;70512;42.122;24.732;2023-12-28T04:29:05;5.70;78.50
79760;DHT22;70512;42.122;24.732;2023-12-28T04:31:33;5.70;79.70
79760;DHT22;70512;42.122;24.732;2023-12-28T04:34:00;5.60;78.60
79760;DHT22;70512;42.122;24.732;2023-12-28T04:36:29;5.60;78.90
79760;DHT22;70512;42.122;24.732;2023-12-28T04:38:56;5.60;79.30
79760;DHT22;70512;42.122;24.732;2023-12-28T04:41:23;5.60;79.00
79760;DHT22;70512;42.122;24.732;2023-12-28T04:43:50;5.60;79.00
79760;DHT22;70512;42.122;24.732;2023-12-28T04:46:17;5.50;79.80
79760;DHT22;70512;42.122;24.732;2023-12-28T04:48:45;5.40;80.80
79760;DHT22;70512;42.122;24.732;2023-12-28T04:51:12;5.30;80.80
79760;DHT22;70512;42.122;24.732;2023-12-28T04:53:39;5.40;80.20
79760;DHT22;70512;42.122;24.732;2023-12-28T04:56:06;5.40;79.50
79760;DHT22;70512;42.122;24.732;2023-12-28T04:58:33;5.50;79.00
79760;DHT22;70512;42.122;24.732;2023-12-28T05:01:05;5.50;78.20
79760;DHT22;70512;42.122;24.732;2023-12-28T05:03:28;5.50;78.00
79760;DHT22;70512;42.122;24.732;2023-12-28T05:05:55;5.50;77.70
79760;DHT22;70512;42.122;24.732;2023-12-28T05:08:24;5.50;76.80
79760;DHT22;70512;42.122;24.732;2023-12-28T05:10:51;5.50;76.40
79760;DHT22;70512;42.122;24.732;2023-12-28T05:13:18;5.50;76.10
79760;DHT22;70512;42.122;24.732;2023-12-28T05:15:45;5.50;76.10
79760;DHT22;70512;42.122;24.732;2023-12-28T05:18:12;5.50;76.50
79760;DHT22;70512;42.122;24.732;2023-12-28T05:20:39;5.40;77.00
79760;DHT22;70512;42.122;24.732;2023-12-28T05:23:06;5.40;76.90
79760;DHT22;70512;42.122;24.732;2023-12-28T05:25:32;5.40;76.70
79760;DHT22;70512;42.122;24.732;2023-12-28T05:27:59;5.40;76.80
79760;DHT22;70512;42.122;24.732;2023-12-28T05:30:26;5.50;76.60
79760;DHT22;70512;42.122;24.732;2023-12-28T05:32:53;5.50;76.40
79760;DHT22;70512;42.122;24.732;2023-12-28T05:35:20;5.40;77.00
79760;DHT22;70512;42.122;24.732;2023-12-28T05:37:47;5.20;77.90
79760;DHT22;70512;42.122;24.732;2023-12-28T05:40:17;5.10;78.40
79760;DHT22;70512;42.122;24.732;2023-12-28T05:42:42;5.10;78.80
79760;DHT22;70512;42.122;24.732;2023-12-28T05:45:10;5.00;79.50
79760;DHT22;70512;42.122;24.732;2023-12-28T05:47:37;5.10;79.50
79760;DHT22;70512;42.122;24.732;2023-12-28T05:50:04;5.10;79.30
79760;DHT22;70512;42.122;24.732;2023-12-28T05:52:31;5.10;79.40
79760;DHT22;70512;42.122;24.732;2023-12-28T05:54:58;5.10;79.20
79760;DHT22;70512;42.122;24.732;2023-12-28T05:57:25;5.10;79.00
79760;DHT22;70512;42.122;24.732;2023-12-28T05:59:54;5.10;78.90
79760;DHT22;70512;42.122;24.732;2023-12-28T06:02:21;5.10;79.00
79760;DHT22;70512;42.122;24.732;2023-12-28T06:04:48;5.10;79.30
79760;DHT22;70512;42.122;24.732;2023-12-28T06:07:14;4.90;79.90
79760;DHT22;70512;42.122;24.732;2023-12-28T06:09:41;4.80;81.30
79760;DHT22;70512;42.122;24.732;2023-12-28T06:12:08;4.70;82.00
79760;DHT22;70512;42.122;24.732;2023-12-28T06:14:36;4.70;82.30
79760;DHT22;70512;42.122;24.732;2023-12-28T06:17:03;4.70;82.30
79760;DHT22;70512;42.122;24.732;2023-12-28T06:19:30;4.70;82.70
79760;DHT22;70512;42.122;24.732;2023-12-28T06:22:00;4.60;82.90
79760;DHT22;70512;42.122;24.732;2023-12-28T06:24:27;4.60;83.30
79760;DHT22;70512;42.122;24.732;2023-12-28T06:26:54;4.60;83.60
79760;DHT22;70512;42.122;24.732;2023-12-28T06:29:21;4.50;83.90
79760;DHT22;70512;42.122;24.732;2023-12-28T06:31:48;4.50;84.40
79760;DHT22;70512;42.122;24.732;2023-12-28T06:34:16;4.50;84.50
79760;DHT22;70512;42.122;24.732;2023-12-28T06:36:43;4.60;84.50
79760;DHT22;70512;42.122;24.732;2023-12-28T06:39:10;4.70;84.30
79760;DHT22;70512;42.122;24.732;2023-12-28T06:41:37;4.80;84.10
79760;DHT22;70512;42.122;24.732;2023-12-28T06:44:05;4.90;83.80
79760;DHT22;70512;42.122;24.732;2023-12-28T06:46:32;5.10;83.30
79760;DHT22;70512;42.122;24.732;2023-12-28T06:48:59;5.20;82.80
79760;DHT22;70512;42.122;24.732;2023-12-28T06:51:26;5.30;82.90
79760;DHT22;70512;42.122;24.732;2023-12-28T06:53:56;5.30;82.80
79760;DHT22;70512;42.122;24.732;2023-12-28T06:56:23;5.40;82.60
79760;DHT22;70512;42.122;24.732;2023-12-28T06:58:50;5.40;82.30
79760;DHT22;70512;42.122;24.732;2023-12-28T07:01:17;5.50;82.00
79760;DHT22;70512;42.122;24.732;2023-12-28T07:03:44;5.60;81.70
79760;DHT22;70512;42.122;24.732;2023-12-28T07:06:13;5.70;81.50
79760;DHT22;70512;42.122;24.732;2023-12-28T07:08:40;5.80;81.20
79760;DHT22;70512;42.122;24.732;2023-12-28T07:11:09;5.80;80.90
79760;DHT22;70512;42.122;24.732;2023-12-28T07:13:35;5.80;80.90
79760;DHT22;70512;42.122;24.732;2023-12-28T07:16:03;5.90;80.90
79760;DHT22;70512;42.122;24.732;2023-12-28T07:18:30;5.90;80.30
79760;DHT22;70512;42.122;24.732;2023-12-28T07:20:58;6.10;79.80
79760;DHT22;70512;42.122;24.732;2023-12-28T07:23:24;6.20;79.00
79760;DHT22;70512;42.122;24.732;2023-12-28T07:25:51;6.30;78.70
79760;DHT22;70512;42.122;24.732;2023-12-28T07:28:18;6.30;78.50
79760;DHT22;70512;42.122;24.732;2023-12-28T07:30:54;6.30;78.50
79760;DHT22;70512;42.122;24.732;2023-12-28T07:33:18;6.20;78.70
79760;DHT22;70512;42.122;24.732;2023-12-28T07:35:45;6.20;78.80
79760;DHT22;70512;42.122;24.732;2023-12-28T07:38:12;6.30;78.70
79760;DHT22;70512;42.122;24.732;2023-12-28T07:40:39;6.40;78.10
79760;DHT22;70512;42.122;24.732;2023-12-28T07:43:06;6.50;77.70
79760;DHT22;70512;42.122;24.732;2023-12-28T07:45:33;6.70;77.10
79760;DHT22;70512;42.122;24.732;2023-12-28T07:48:01;6.80;76.10
79760;DHT22;70512;42.122;24.732;2023-12-28T07:50:29;6.90;75.70
79760;DHT22;70512;42.122;24.732;2023-12-28T07:52:56;7.00;75.50
79760;DHT22;70512;42.122;24.732;2023-12-28T07:55:23;7.00;75.30
79760;DHT22;70512;42.122;24.732;2023-12-28T07:57:51;7.10;75.20
79760;DHT22;70512;42.122;24.732;2023-12-28T08:00:18;7.20;74.70
79760;DHT22;70512;42.122;24.732;2023-12-28T08:02:45;7.40;73.40
79760;DHT22;70512;42.122;24.732;2023-12-28T08:05:12;7.60;72.40
79760;DHT22;70512;42.122;24.732;2023-12-28T08:07:39;7.70;72.00
79760;DHT22;70512;42.122;24.732;2023-12-28T08:10:07;7.80;71.60
79760;DHT22;70512;42.122;24.732;2023-12-28T08:12:34;7.80;71.20
79760;DHT22;70512;42.122;24.732;2023-12-28T08:15:01;7.90;71.20
79760;DHT22;70512;42.122;24.732;2023-12-28T08:17:28;7.90;71.10
79760;DHT22;70512;42.122;24.732;2023-12-28T08:19:55;7.90;71.20
79760;DHT22;70512;42.122;24.732;2023-12-28T08:22:22;7.90;71.10
79760;DHT22;70512;42.122;24.732;2023-12-28T08:24:49;8.00;70.50
79760;DHT22;70512;42.122;24.732;2023-12-28T08:27:16;8.00;70.90
79760;DHT22;70512;42.122;24.732;2023-12-28T08:29:43;8.10;70.80
79760;DHT22;70512;42.122;24.732;2023-12-28T08:32:11;8.10;70.70
79760;DHT22;70512;42.122;24.732;2023-12-28T08:34:38;8.20;70.60
79760;DHT22;70512;42.122;24.732;2023-12-28T08:37:05;8.30;70.30
79760;DHT22;70512;42.122;24.732;2023-12-28T08:39:32;8.30;70.10
79760;DHT22;70512;42.122;24.732;2023-12-28T08:41:59;8.40;70.00
79760;DHT22;70512;42.122;24.732;2023-12-28T08:44:26;8.50;69.90
79760;DHT22;70512;42.122;24.732;2023-12-28T08:46:53;8.60;69.70
79760;DHT22;70512;42.122;24.732;2023-12-28T08:49:20;8.70;69.10
79760;DHT22;70512;42.122;24.732;2023-12-28T08:51:48;8.70;68.40
79760;DHT22;70512;42.122;24.732;2023-12-28T08:54:15;8.80;68.70
79760;DHT22;70512;42.122;24.732;2023-12-28T08:56:42;8.90;67.90
79760;DHT22;70512;42.122;24.732;2023-12-28T08:59:09;9.10;67.00
79760;DHT22;70512;42.122;24.732;2023-12-28T09:01:36;9.20;66.40
79760;DHT22;70512;42.122;24.732;2023-12-28T09:04:03;9.30;65.20
79760;DHT22;70512;42.122;24.732;2023-12-28T09:06:32;9.40;64.60
79760;DHT22;70512;42.122;24.732;2023-12-28T09:08:59;9.50;64.20
79760;DHT22;70512;42.122;24.732;2023-12-28T09:11:27;9.60;63.90
79760;DHT22;70512;42.122;24.732;2023-12-28T09:13:54;9.70;64.10
79760;DHT22;70512;42.122;24.732;2023-12-28T09:16:21;9.80;63.00
79760;DHT22;70512;42.122;24.732;2023-12-28T09:18:54;9.90;62.80
79760;DHT22;70512;42.122;24.732;2023-12-28T09:21:18;10.00;62.60
79760;DHT22;70512;42.122;24.732;2023-12-28T09:23:45;10.10;62.30
79760;DHT22;70512;42.122;24.732;2023-12-28T09:26:12;10.20;62.00
79760;DHT22;70512;42.122;24.732;2023-12-28T09:28:39;10.20;62.00
79760;DHT22;70512;42.122;24.732;2023-12-28T09:31:07;10.30;61.70
79760;DHT22;70512;42.122;24.732;2023-12-28T09:33:34;10.40;61.40
79760;DHT22;70512;42.122;24.732;2023-12-28T09:36:06;10.50;60.90
79760;DHT22;70512;42.122;24.732;2023-12-28T09:38:29;10.50;61.10
79760;DHT22;70512;42.122;24.732;2023-12-28T09:40:57;10.60;60.70
79760;DHT22;70512;42.122;24.732;2023-12-28T09:43:25;10.70;60.40
79760;DHT22;70512;42.122;24.732;2023-12-28T09:45:53;10.70;60.50
79760;DHT22;70512;42.122;24.732;2023-12-28T09:48:23;10.80;60.50
79760;DHT22;70512;42.122;24.732;2023-12-28T09:50:50;10.90;60.10
79760;DHT22;70512;42.122;24.732;2023-12-28T09:53:23;10.90;59.50
79760;DHT22;70512;42.122;24.732;2023-12-28T09:55:48;11.00;59.70
79760;DHT22;70512;42.122;24.732;2023-12-28T09:58:17;11.10;59.60
79760;DHT22;70512;42.122;24.732;2023-12-28T10:00:49;11.20;59.20
79760;DHT22;70512;42.122;24.732;2023-12-28T10:03:16;11.30;59.00
79760;DHT22;70512;42.122;24.732;2023-12-28T10:05:45;11.40;59.00
79760;DHT22;70512;42.122;24.732;2023-12-28T10:08:17;11.50;58.70
79760;DHT22;70512;42.122;24.732;2023-12-28T10:10:46;11.40;59.10
79760;DHT22;70512;42.122;24.732;2023-12-28T10:13:10;11.40;59.20
79760;DHT22;70512;42.122;24.732;2023-12-28T10:15:37;11.50;58.90
79760;DHT22;70512;42.122;24.732;2023-12-28T10:18:04;11.60;58.10
79760;DHT22;70512;42.122;24.732;2023-12-28T10:20:32;11.70;58.10
79760;DHT22;70512;42.122;24.732;2023-12-28T10:22:59;11.80;57.90
79760;DHT22;70512;42.122;24.732;2023-12-28T10:25:28;11.80;57.70
79760;DHT22;70512;42.122;24.732;2023-12-28T10:27:55;11.80;57.50
79760;DHT22;70512;42.122;24.732;2023-12-28T10:30:22;11.90;57.30
79760;DHT22;70512;42.122;24.732;2023-12-28T10:32:49;12.10;56.90
79760;DHT22;70512;42.122;24.732;2023-12-28T10:35:16;12.40;56.00
79760;DHT22;70512;42.122;24.732;2023-12-28T10:37:43;12.90;55.00
79760;DHT22;70512;42.122;24.732;2023-12-28T10:40:12;13.40;53.20
79760;DHT22;70512;42.122;24.732;2023-12-28T10:42:46;14.10;51.80
79760;DHT22;70512;42.122;24.732;2023-12-28T10:45:11;14.80;49.60
79760;DHT22;70512;42.122;24.732;2023-12-28T10:47:42;15.70;47.40
79760;DHT22;70512;42.122;24.732;2023-12-28T10:50:08;16.70;45.20
79760;DHT22;70512;42.122;24.732;2023-12-28T10:52:36;17.70;42.40
79760;DHT22;70512;42.122;24.732;2023-12-28T10:57:44;19.20;37.80
79760;DHT22;70512;42.122;24.732;2023-12-28T11:02:44;20.30;35.20
79760;DHT22;70512;42.122;24.732;2023-12-28T11:05:12;21.00;34.00
79760;DHT22;70512;42.122;24.732;2023-12-28T11:07:39;21.40;32.30
79760;DHT22;70512;42.122;24.732;2023-12-28T11:10:07;21.40;31.80
79760;DHT22;70512;42.122;24.732;2023-12-28T11:12:36;21.10;32.60
79760;DHT22;70512;42.122;24.732;2023-12-28T11:15:09;21.10;32.70
79760;DHT22;70512;42.122;24.732;2023-12-28T11:17:33;20.90;32.70
79760;DHT22;70512;42.122;24.732;2023-12-28T11:20:02;20.90;32.90
79760;DHT22;70512;42.122;24.732;2023-12-28T11:22:31;21.00;32.60
79760;DHT22;70512;42.122;24.732;2023-12-28T11:24:58;21.10;32.40
79760;DHT22;70512;42.122;24.732;2023-12-28T11:27:25;21.40;32.30
79760;DHT22;70512;42.122;24.732;2023-12-28T11:29:52;21.90;30.90
79760;DHT22;70512;42.122;24.732;2023-12-28T11:32:19;22.10;30.50
79760;DHT22;70512;42.122;24.732;2023-12-28T11:34:55;22.30;30.30
79760;DHT22;70512;42.122;24.732;2023-12-28T11:37:17;22.80;29.90
79760;DHT22;70512;42.122;24.732;2023-12-28T11:39:45;22.90;29.00
79760;DHT22;70512;42.122;24.732;2023-12-28T11:42:18;22.00;30.30
79760;DHT22;70512;42.122;24.732;2023-12-28T11:44:43;21.60;31.40
79760;DHT22;70512;42.122;24.732;2023-12-28T11:47:11;21.50;31.30
79760;DHT22;70512;42.122;24.732;2023-12-28T11:49:38;21.60;31.30
79760;DHT22;70512;42.122;24.732;2023-12-28T11:52:09;21.10;31.50
79760;DHT22;70512;42.122;24.732;2023-12-28T11:54:47;20.80;32.30
79760;DHT22;70512;42.122;24.732;2023-12-28T11:57:07;21.20;31.70
79760;DHT22;70512;42.122;24.732;2023-12-28T11:59:37;21.70;30.90
79760;DHT22;70512;42.122;24.732;2023-12-28T12:02:04;21.80;30.40
79760;DHT22;70512;42.122;24.732;2023-12-28T12:04:33;22.00;30.30
79760;DHT22;70512;42.122;24.732;2023-12-28T12:07:01;22.40;29.20
79760;DHT22;70512;42.122;24.732;2023-12-28T12:09:30;22.70;29.00
79760;DHT22;70512;42.122;24.732;2023-12-28T12:12:02;22.30;29.20
79760;DHT22;70512;42.122;24.732;2023-12-28T12:14:32;22.40;29.60
79760;DHT22;70512;42.122;24.732;2023-12-28T12:16:58;23.00;28.70
79760;DHT22;70512;42.122;24.732;2023-12-28T12:19:26;23.90;28.30
79760;DHT22;70512;42.122;24.732;2023-12-28T12:21:53;24.60;26.90
79760;DHT22;70512;42.122;24.732;2023-12-28T12:24:20;23.90;27.00
79760;DHT22;70512;42.122;24.732;2023-12-28T12:26:48;23.40;28.00
79760;DHT22;70512;42.122;24.732;2023-12-28T12:29:15;23.10;28.10
79760;DHT22;70512;42.122;24.732;2023-12-28T12:31:43;22.70;28.60
79760;DHT22;70512;42.122;24.732;2023-12-28T12:34:10;22.80;28.70
79760;DHT22;70512;42.122;24.732;2023-12-28T12:36:37;23.50;28.10
79760;DHT22;70512;42.122;24.732;2023-12-28T12:39:04;23.70;27.30
79760;DHT22;70512;42.122;24.732;2023-12-28T12:41:32;23.20;27.70
79760;DHT22;70512;42.122;24.732;2023-12-28T12:43:59;23.00;28.30
79760;DHT22;70512;42.122;24.732;2023-12-28T12:46:27;23.10;28.10
79760;DHT22;70512;42.122;24.732;2023-12-28T12:48:58;23.70;27.10
79760;DHT22;70512;42.122;24.732;2023-12-28T12:51:23;23.30;27.30
79760;DHT22;70512;42.122;24.732;2023-12-28T12:53:55;23.10;27.70
79760;DHT22;70512;42.122;24.732;2023-12-28T12:56:19;23.40;27.50
79760;DHT22;70512;42.122;24.732;2023-12-28T12:58:46;23.10;27.30
79760;DHT22;70512;42.122;24.732;2023-12-28T13:01:13;22.90;27.40
79760;DHT22;70512;42.122;24.732;2023-12-28T13:03:40;23.10;27.30
79760;DHT22;70512;42.122;24.732;2023-12-28T13:06:07;23.50;27.10
79760;DHT22;70512;42.122;24.732;2023-12-28T13:08:34;24.20;26.40
79760;DHT22;70512;42.122;24.732;2023-12-28T13:11:01;24.10;26.10
79760;DHT22;70512;42.122;24.732;2023-12-28T13:13:32;24.40;26.00
79760;DHT22;70512;42.122;24.732;2023-12-28T13:15:59;24.70;25.90
79760;DHT22;70512;42.122;24.732;2023-12-28T13:18:26;25.20;25.60
79760;DHT22;70512;42.122;24.732;2023-12-28T13:20:53;25.90;25.10
79760;DHT22;70512;42.122;24.732;2023-12-28T13:23:20;26.50;25.10
79760;DHT22;70512;42.122;24.732;2023-12-28T13:25:47;26.70;23.80
79760;DHT22;70512;42.122;24.732;2023-12-28T13:28:14;26.30;24.00
79760;DHT22;70512;42.122;24.732;2023-12-28T13:30:41;24.90;25.30
79760;DHT22;70512;42.122;24.732;2023-12-28T13:33:09;23.10;27.60
79760;DHT22;70512;42.122;24.732;2023-12-28T13:35:36;22.30;28.80
79760;DHT22;70512;42.122;24.732;2023-12-28T13:38:03;21.40;29.90
79760;DHT22;70512;42.122;24.732;2023-12-28T13:40:30;20.30;32.10
79760;DHT22;70512;42.122;24.732;2023-12-28T13:42:57;19.60;33.50
79760;DHT22;70512;42.122;24.732;2023-12-28T13:45:24;19.20;34.20
79760;DHT22;70512;42.122;24.732;2023-12-28T13:47:51;18.80;34.90
79760;DHT22;70512;42.122;24.732;2023-12-28T13:50:18;18.50;35.90
79760;DHT22;70512;42.122;24.732;2023-12-28T13:52:46;18.00;36.80
79760;DHT22;70512;42.122;24.732;2023-12-28T13:55:13;17.70;37.60
79760;DHT22;70512;42.122;24.732;2023-12-28T13:57:40;17.40;38.30
79760;DHT22;70512;42.122;24.732;2023-12-28T14:00:07;17.20;38.90
79760;DHT22;70512;42.122;24.732;2023-12-28T14:02:34;16.90;39.70
79760;DHT22;70512;42.122;24.732;2023-12-28T14:05:01;16.60;40.60
79760;DHT22;70512;42.122;24.732;2023-12-28T14:07:28;16.40;41.20
79760;DHT22;70512;42.122;24.732;2023-12-28T14:09:55;16.10;42.10
79760;DHT22;70512;42.122;24.732;2023-12-28T14:12:27;15.90;42.60
79760;DHT22;70512;42.122;24.732;2023-12-28T14:14:51;15.70;42.90
79760;DHT22;70512;42.122;24.732;2023-12-28T14:17:18;15.60;43.50
79760;DHT22;70512;42.122;24.732;2023-12-28T14:19:48;15.40;43.90
79760;DHT22;70512;42.122;24.732;2023-12-28T14:22:15;15.20;44.20
79760;DHT22;70512;42.122;24.732;2023-12-28T14:24:42;15.10;44.80
79760;DHT22;70512;42.122;24.732;2023-12-28T14:27:09;15.00;45.10
79760;DHT22;70512;42.122;24.732;2023-12-28T14:29:37;15.00;45.10
79760;DHT22;70512;42.122;24.732;2023-12-28T14:32:05;14.90;45.60
79760;DHT22;70512;42.122;24.732;2023-12-28T14:34:32;14.80;45.90
79760;DHT22;70512;42.122;24.732;2023-12-28T14:36:59;14.70;46.30
79760;DHT22;70512;42.122;24.732;2023-12-28T14:39:26;14.60;46.90
79760;DHT22;70512;42.122;24.732;2023-12-28T14:41:53;14.40;47.40
79760;DHT22;70512;42.122;24.732;2023-12-28T14:44:21;14.30;48.00
79760;DHT22;70512;42.122;24.732;2023-12-28T14:46:48;14.20;48.50
79760;DHT22;70512;42.122;24.732;2023-12-28T14:49:15;14.10;49.20
79760;DHT22;70512;42.122;24.732;2023-12-28T14:51:42;13.90;50.20
79760;DHT22;70512;42.122;24.732;2023-12-28T14:54:09;13.80;50.50
79760;DHT22;70512;42.122;24.732;2023-12-28T14:56:36;13.60;50.90
79760;DHT22;70512;42.122;24.732;2023-12-28T14:59:03;13.50;51.10
79760;DHT22;70512;42.122;24.732;2023-12-28T15:01:31;13.40;51.90
79760;DHT22;70512;42.122;24.732;2023-12-28T15:03:58;13.30;52.50
79760;DHT22;70512;42.122;24.732;2023-12-28T15:06:25;13.10;52.70
79760;DHT22;70512;42.122;24.732;2023-12-28T15:08:52;13.00;53.30
79760;DHT22;70512;42.122;24.732;2023-12-28T15:11:19;12.90;53.90
79760;DHT22;70512;42.122;24.732;2023-12-28T15:13:49;12.70;54.70
79760;DHT22;70512;42.122;24.732;2023-12-28T15:16:15;12.60;55.10
79760;DHT22;70512;42.122;24.732;2023-12-28T15:18:42;12.50;55.60
79760;DHT22;70512;42.122;24.732;2023-12-28T15:21:10;12.40;55.90
79760;DHT22;70512;42.122;24.732;2023-12-28T15:23:37;12.30;56.90
79760;DHT22;70512;42.122;24.732;2023-12-28T15:26:04;12.20;57.20
79760;DHT22;70512;42.122;24.732;2023-12-28T15:28:32;12.00;58.00
79760;DHT22;70512;42.122;24.732;2023-12-28T15:30:59;11.90;58.50